createdAt,value
2019-05-04T00:00:45.272Z,929.64
2019-05-04T00:01:45.435Z,929.61
2019-05-04T00:02:45.142Z,929.64
2019-05-04T00:03:45.167Z,929.64
2019-05-04T00:04:45.223Z,929.63
2019-05-04T00:05:45.279Z,929.62
2019-05-04T00:06:50.361Z,929.62
2019-05-04T00:07:45.381Z,929.67
2019-05-04T00:08:46.572Z,929.62
2019-05-04T00:09:45.744Z,929.64
2019-05-04T00:10:45.520Z,929.69
2019-05-04T00:11:45.660Z,929.66
2019-05-04T00:12:45.619Z,929.69
2019-05-04T00:13:45.642Z,929.65
2019-05-04T00:14:45.725Z,929.66
2019-05-04T00:15:45.760Z,929.67
2019-05-04T00:16:45.797Z,929.66
2019-05-04T00:17:45.828Z,929.67
2019-05-04T00:18:45.908Z,929.67
2019-05-04T00:19:45.960Z,929.66
2019-05-04T00:20:53.076Z,929.66
2019-05-04T00:21:46.090Z,929.69
2019-05-04T00:22:46.096Z,929.68
2019-05-04T00:23:46.134Z,929.63
2019-05-04T00:24:46.195Z,929.64
2019-05-04T00:25:49.067Z,929.67
2019-05-04T00:26:46.336Z,929.65
2019-05-04T00:27:46.317Z,929.63
2019-05-04T00:28:46.369Z,929.65
2019-05-04T00:29:46.432Z,929.69
2019-05-04T00:30:46.522Z,929.69
2019-05-04T00:31:46.521Z,929.68
2019-05-04T00:32:46.552Z,929.70
2019-05-04T00:33:46.610Z,929.71
2019-05-04T00:34:46.679Z,929.67
2019-05-04T00:35:46.713Z,929.69
2019-05-04T00:36:46.769Z,929.66
2019-05-04T00:37:46.809Z,929.63
2019-05-04T00:38:46.879Z,929.66
2019-05-04T00:39:46.892Z,929.66
2019-05-04T00:40:46.957Z,929.66
2019-05-04T00:41:47.013Z,929.67
2019-05-04T00:42:47.060Z,929.68
2019-05-04T00:43:47.091Z,929.72
2019-05-04T00:44:47.183Z,929.70
2019-05-04T00:45:47.236Z,929.76
2019-05-04T00:46:47.231Z,929.73
2019-05-04T00:47:47.269Z,929.81
2019-05-04T00:48:47.316Z,929.76
2019-05-04T00:49:47.382Z,929.80
2019-05-04T00:50:47.413Z,929.78
2019-05-04T00:51:47.488Z,929.80
2019-05-04T00:52:47.526Z,929.79
2019-05-04T00:53:47.570Z,929.84
2019-05-04T00:54:47.633Z,929.86
2019-05-04T00:55:47.657Z,929.85
2019-05-04T00:56:47.722Z,929.84
2019-05-04T00:57:47.776Z,929.93
2019-05-04T00:58:47.789Z,929.88
2019-05-04T00:59:47.867Z,929.92
2019-05-04T01:00:47.911Z,929.95
2019-05-04T01:01:47.939Z,929.99
2019-05-04T01:02:47.995Z,930.00
2019-05-04T01:03:48.039Z,930.01
2019-05-04T01:04:48.107Z,930.05
2019-05-04T01:05:48.150Z,930.04
2019-05-04T01:06:48.186Z,930.06
2019-05-04T01:07:48.229Z,930.07
2019-05-04T01:08:48.285Z,930.11
2019-05-04T01:09:48.320Z,930.01
2019-05-04T01:10:48.393Z,930.05
2019-05-04T01:11:48.433Z,930.05
2019-05-04T01:12:48.474Z,930.02
2019-05-04T01:13:48.534Z,930.04
2019-05-04T01:14:48.592Z,930.01
2019-05-04T01:15:48.625Z,930.01
2019-05-04T01:16:48.653Z,930.03
2019-05-04T01:17:48.730Z,929.99
2019-05-04T01:18:48.782Z,930.00
2019-05-04T01:19:48.805Z,930.01
2019-05-04T01:20:48.868Z,930.03
2019-05-04T01:21:48.922Z,930.09
2019-05-04T01:22:48.972Z,930.04
2019-05-04T01:23:49.018Z,930.06
2019-05-04T01:24:49.059Z,930.03
2019-05-04T01:25:49.116Z,930.02
2019-05-04T01:26:49.135Z,930.03
2019-05-04T01:27:49.192Z,930.00
2019-05-04T01:28:49.248Z,930.03
2019-05-04T01:29:49.296Z,930.05
2019-05-04T01:30:49.350Z,930.01
2019-05-04T01:31:49.385Z,930.03
2019-05-04T01:32:49.443Z,930.07
2019-05-04T01:33:49.484Z,930.06
2019-05-04T01:34:49.573Z,930.03
2019-05-04T01:35:49.587Z,930.04
2019-05-04T01:36:49.668Z,930.04
2019-05-04T01:37:49.682Z,929.97
2019-05-04T01:38:49.748Z,929.99
2019-05-04T01:39:49.771Z,929.99
2019-05-04T01:40:49.849Z,929.96
2019-05-04T01:41:49.858Z,929.95
2019-05-04T01:42:49.909Z,929.98
2019-05-04T01:43:49.951Z,930.03
2019-05-04T01:44:50.041Z,930.07
2019-05-04T01:45:50.063Z,930.11
2019-05-04T01:46:50.110Z,930.10
2019-05-04T01:47:50.149Z,930.08
2019-05-04T01:48:50.223Z,930.07
2019-05-04T01:49:50.252Z,930.03
2019-05-04T01:50:50.294Z,930.06
2019-05-04T01:51:50.391Z,930.00
2019-05-04T01:52:50.397Z,930.03
2019-05-04T01:53:50.429Z,930.01
2019-05-04T01:54:50.482Z,930.07
2019-05-04T01:55:50.567Z,930.04
2019-05-04T01:56:50.571Z,930.05
2019-05-04T01:57:50.672Z,930.04
2019-05-04T01:58:50.699Z,930.06
2019-05-04T01:59:50.730Z,930.06
2019-05-04T02:00:50.778Z,930.05
2019-05-04T02:01:50.832Z,930.07
2019-05-04T02:02:50.891Z,930.03
2019-05-04T02:03:50.918Z,930.07
2019-05-04T02:04:51.518Z,930.04
2019-05-04T02:05:51.056Z,930.09
2019-05-04T02:06:51.066Z,930.07
2019-05-04T02:07:51.147Z,930.06
2019-05-04T02:08:51.175Z,930.09
2019-05-04T02:09:51.219Z,930.08
2019-05-04T02:10:51.247Z,930.08
2019-05-04T02:11:51.309Z,930.11
2019-05-04T02:12:51.357Z,930.10
2019-05-04T02:13:51.404Z,930.08
2019-05-04T02:14:51.464Z,930.08
2019-05-04T02:15:51.522Z,930.09
2019-05-04T02:16:51.555Z,930.09
2019-05-04T02:17:51.578Z,930.09
2019-05-04T02:18:51.637Z,930.11
2019-05-04T02:19:51.685Z,930.12
2019-05-04T02:20:51.740Z,930.09
2019-05-04T02:21:51.792Z,930.09
2019-05-04T02:22:51.833Z,930.08
2019-05-04T02:23:51.880Z,930.10
2019-05-04T02:24:51.908Z,930.08
2019-05-04T02:25:51.957Z,930.11
2019-05-04T02:26:51.999Z,930.11
2019-05-04T02:27:52.078Z,930.11
2019-05-04T02:28:52.134Z,930.10
2019-05-04T02:29:52.176Z,930.16
2019-05-04T02:30:52.198Z,930.15
2019-05-04T02:31:52.265Z,930.17
2019-05-04T02:32:52.314Z,930.17
2019-05-04T02:33:52.365Z,930.17
2019-05-04T02:34:52.397Z,930.14
2019-05-04T02:35:52.431Z,930.16
2019-05-04T02:36:55.876Z,930.16
2019-05-04T02:38:07.537Z,930.18
2019-05-04T02:38:55.530Z,930.21
2019-05-04T02:39:52.635Z,930.14
2019-05-04T02:40:57.551Z,930.16
2019-05-04T02:41:55.088Z,930.19
2019-05-04T02:42:52.784Z,930.19
2019-05-04T02:43:55.185Z,930.14
2019-05-04T02:44:55.687Z,930.19
2019-05-04T02:45:55.814Z,930.15
2019-05-04T02:46:54.883Z,930.13
2019-05-04T02:47:55.420Z,930.11
2019-05-04T02:48:53.047Z,930.14
2019-05-04T02:49:55.959Z,930.09
2019-05-04T02:50:55.879Z,930.11
2019-05-04T02:51:56.146Z,930.14
2019-05-04T02:52:55.929Z,930.13
2019-05-04T02:53:55.562Z,930.18
2019-05-04T02:54:56.130Z,930.13
2019-05-04T02:55:55.383Z,930.14
2019-05-04T02:56:56.064Z,930.13
2019-05-04T02:57:55.945Z,930.20
2019-05-04T02:58:55.530Z,930.17
2019-05-04T02:59:56.444Z,930.19
2019-05-04T03:00:56.035Z,930.15
2019-05-04T03:01:55.378Z,930.18
2019-05-04T03:02:55.880Z,930.19
2019-05-04T03:03:56.049Z,930.21
2019-05-04T03:04:56.133Z,930.20
2019-05-04T03:05:56.294Z,930.17
2019-05-04T03:06:56.264Z,930.18
2019-05-04T03:07:55.502Z,930.16
2019-05-04T03:08:55.765Z,930.19
2019-05-04T03:09:55.526Z,930.20
2019-05-04T03:10:55.307Z,930.22
2019-05-04T03:11:55.846Z,930.23
2019-05-04T03:12:56.179Z,930.19
2019-05-04T03:13:56.094Z,930.22
2019-05-04T03:14:54.957Z,930.22
2019-05-04T03:15:55.256Z,930.21
2019-05-04T03:16:56.127Z,930.20
2019-05-04T03:17:55.715Z,930.21
2019-05-04T03:18:55.347Z,930.20
2019-05-04T03:19:57.154Z,930.22
2019-05-04T03:20:56.003Z,930.17
2019-05-04T03:21:55.865Z,930.17
2019-05-04T03:22:55.902Z,930.16
2019-05-04T03:23:55.215Z,930.16
2019-05-04T03:24:56.405Z,930.15
2019-05-04T03:25:56.074Z,930.19
2019-05-04T03:26:55.385Z,930.16
2019-05-04T03:27:56.290Z,930.17
2019-05-04T03:28:55.329Z,930.15
2019-05-04T03:29:55.693Z,930.15
2019-05-04T03:30:58.460Z,930.15
2019-05-04T03:31:58.056Z,930.16
2019-05-04T03:32:58.018Z,930.17
2019-05-04T03:33:58.126Z,930.14
2019-05-04T03:35:15.826Z,930.17
2019-05-04T03:36:05.690Z,930.20
2019-05-04T03:36:59.136Z,930.19
2019-05-04T03:37:56.123Z,930.18
2019-05-04T03:38:58.339Z,930.21
2019-05-04T03:39:56.834Z,930.19
2019-05-04T03:40:55.522Z,930.16
2019-05-04T03:41:55.576Z,930.13
2019-05-04T03:42:55.734Z,930.14
2019-05-04T03:43:56.116Z,930.10
2019-05-04T03:44:56.021Z,930.10
2019-05-04T03:45:55.744Z,930.06
2019-05-04T03:46:56.373Z,930.06
2019-05-04T03:47:56.185Z,930.04
2019-05-04T03:48:56.707Z,930.06
2019-05-04T03:49:55.938Z,930.07
2019-05-04T03:50:55.985Z,930.03
2019-05-04T03:51:56.032Z,930.03
2019-05-04T03:52:56.088Z,930.01
2019-05-04T03:53:56.132Z,930.00
2019-05-04T03:54:56.182Z,929.98
2019-05-04T03:55:56.395Z,929.96
2019-05-04T03:56:56.274Z,929.98
2019-05-04T03:57:56.345Z,929.94
2019-05-04T03:58:56.646Z,929.97
2019-05-04T03:59:56.419Z,929.95
2019-05-04T04:00:56.472Z,929.94
2019-05-04T04:01:56.569Z,929.92
2019-05-04T04:02:56.591Z,929.91
2019-05-04T04:03:56.706Z,929.90
2019-05-04T04:04:56.809Z,929.89
2019-05-04T04:05:56.782Z,929.83
2019-05-04T04:06:56.802Z,929.82
2019-05-04T04:07:56.830Z,929.81
2019-05-04T04:09:09.300Z,929.84
2019-05-04T04:09:56.976Z,929.84
2019-05-04T04:10:57.030Z,929.79
2019-05-04T04:11:57.038Z,929.78
2019-05-04T04:12:57.090Z,929.78
2019-05-04T04:13:57.144Z,929.76
2019-05-04T04:14:57.171Z,929.77
2019-05-04T04:15:57.218Z,929.73
2019-05-04T04:16:57.372Z,929.76
2019-05-04T04:17:57.326Z,929.73
2019-05-04T04:18:57.326Z,929.69
2019-05-04T04:19:57.390Z,929.66
2019-05-04T04:20:57.453Z,929.61
2019-05-04T04:21:57.575Z,929.61
2019-05-04T04:22:57.528Z,929.63
2019-05-04T04:23:57.532Z,929.62
2019-05-04T04:24:57.610Z,929.64
2019-05-04T04:25:57.691Z,929.62
2019-05-04T04:26:57.713Z,929.64
2019-05-04T04:27:57.769Z,929.60
2019-05-04T04:28:57.891Z,929.58
2019-05-04T04:29:57.856Z,929.61
2019-05-04T04:30:57.904Z,929.57
2019-05-04T04:31:57.960Z,929.60
2019-05-04T04:32:58.010Z,929.55
2019-05-04T04:34:01.660Z,929.52
2019-05-04T04:34:58.045Z,929.49
2019-05-04T04:35:58.190Z,929.48
2019-05-04T04:36:58.180Z,929.50
2019-05-04T04:37:58.224Z,929.48
2019-05-04T04:38:58.290Z,929.49
2019-05-04T04:39:58.272Z,929.43
2019-05-04T04:40:58.426Z,929.47
2019-05-04T04:41:58.429Z,929.45
2019-05-04T04:42:58.501Z,929.46
2019-05-04T04:43:58.505Z,929.42
2019-05-04T04:44:58.598Z,929.44
2019-05-04T04:45:58.696Z,929.42
2019-05-04T04:46:58.606Z,929.44
2019-05-04T04:48:15.724Z,929.45
2019-05-04T04:48:58.693Z,929.47
2019-05-04T04:49:58.739Z,929.46
2019-05-04T04:50:58.771Z,929.44
2019-05-04T04:51:58.826Z,929.43
2019-05-04T04:52:58.906Z,929.44
2019-05-04T04:53:58.927Z,929.46
2019-05-04T04:55:15.143Z,929.43
2019-05-04T04:55:58.991Z,929.42
2019-05-04T04:56:59.063Z,929.45
2019-05-04T04:57:59.097Z,929.41
2019-05-04T04:58:59.162Z,929.38
2019-05-04T04:59:59.194Z,929.42
2019-05-04T05:00:59.221Z,929.44
2019-05-04T05:01:59.321Z,929.45
2019-05-04T05:02:59.320Z,929.44
2019-05-04T05:03:59.372Z,929.42
2019-05-04T05:04:59.418Z,929.45
2019-05-04T05:05:59.470Z,929.46
2019-05-04T05:06:59.528Z,929.40
2019-05-04T05:07:59.575Z,929.35
2019-05-04T05:08:59.602Z,929.39
2019-05-04T05:09:59.642Z,929.34
2019-05-04T05:10:59.691Z,929.34
2019-05-04T05:11:59.739Z,929.34
2019-05-04T05:12:59.784Z,929.34
2019-05-04T05:13:59.833Z,929.32
2019-05-04T05:14:59.900Z,929.31
2019-05-04T05:15:59.909Z,929.33
2019-05-04T05:17:00.029Z,929.30
2019-05-04T05:18:00.034Z,929.24
2019-05-04T05:19:00.078Z,929.25
2019-05-04T05:20:00.128Z,929.25
2019-05-04T05:21:00.193Z,929.26
2019-05-04T05:22:00.192Z,929.28
2019-05-04T05:23:00.270Z,929.23
2019-05-04T05:24:00.282Z,929.28
2019-05-04T05:25:00.340Z,929.27
2019-05-04T05:26:00.395Z,929.24
2019-05-04T05:27:00.431Z,929.24
2019-05-04T05:28:00.472Z,929.25
2019-05-04T05:29:00.516Z,929.25
2019-05-04T05:30:00.569Z,929.23
2019-05-04T05:31:00.615Z,929.25
2019-05-04T05:32:00.654Z,929.21
2019-05-04T05:33:00.716Z,929.27
2019-05-04T05:34:00.752Z,929.29
2019-05-04T05:35:00.780Z,929.28
2019-05-04T05:36:00.852Z,929.28
2019-05-04T05:37:00.874Z,929.30
2019-05-04T05:38:00.943Z,929.29
2019-05-04T05:39:00.975Z,929.27
2019-05-04T05:40:01.279Z,929.27
2019-05-04T05:41:01.075Z,929.24
2019-05-04T05:42:01.150Z,929.21
2019-05-04T05:43:01.163Z,929.21
2019-05-04T05:44:01.214Z,929.19
2019-05-04T05:45:01.259Z,929.15
2019-05-04T05:46:01.293Z,929.21
2019-05-04T05:47:01.356Z,929.14
2019-05-04T05:48:01.403Z,929.14
2019-05-04T05:49:01.538Z,929.11
2019-05-04T05:50:01.482Z,929.08
2019-05-04T05:51:01.534Z,929.05
2019-05-04T05:52:01.781Z,929.03
2019-05-04T05:53:01.634Z,929.03
2019-05-04T05:54:01.681Z,929.05
2019-05-04T05:55:01.723Z,929.05
2019-05-04T05:56:01.811Z,929.02
2019-05-04T05:57:01.819Z,929.07
2019-05-04T05:58:01.883Z,929.05
2019-05-04T05:59:01.902Z,929.02
2019-05-04T06:00:06.814Z,928.99
2019-05-04T06:01:01.982Z,929.01
2019-05-04T06:02:06.322Z,928.99
2019-05-04T06:03:02.063Z,928.95
2019-05-04T06:04:04.590Z,929.00
2019-05-04T06:05:02.165Z,929.00
2019-05-04T06:06:07.269Z,928.94
2019-05-04T06:07:02.271Z,928.96
2019-05-04T06:08:05.596Z,928.97
2019-05-04T06:09:04.233Z,928.95
2019-05-04T06:10:21.291Z,928.94
2019-05-04T06:11:02.435Z,928.94
2019-05-04T06:12:02.512Z,928.91
2019-05-04T06:13:02.540Z,928.91
2019-05-04T06:14:04.634Z,928.94
2019-05-04T06:15:04.362Z,928.92
2019-05-04T06:16:04.647Z,928.89
2019-05-04T06:17:04.376Z,928.89
2019-05-04T06:18:04.292Z,928.90
2019-05-04T06:19:04.849Z,928.91
2019-05-04T06:20:04.611Z,928.90
2019-05-04T06:21:04.755Z,928.88
2019-05-04T06:22:05.018Z,928.94
2019-05-04T06:23:04.568Z,928.95
2019-05-04T06:24:04.745Z,928.94
2019-05-04T06:25:07.474Z,928.95
2019-05-04T06:26:07.248Z,928.97
2019-05-04T06:27:06.559Z,928.98
2019-05-04T06:28:04.921Z,928.96
2019-05-04T06:29:07.171Z,928.99
2019-05-04T06:30:04.951Z,929.00
2019-05-04T06:31:04.914Z,929.04
2019-05-04T06:32:05.067Z,928.99
2019-05-04T06:34:04.435Z,928.99
2019-05-04T06:35:04.566Z,929.00
2019-05-04T06:36:05.230Z,928.99
2019-05-04T06:37:04.728Z,929.02
2019-05-04T06:38:09.920Z,928.97
2019-05-04T06:39:04.357Z,929.00
2019-05-04T06:40:07.419Z,929.03
2019-05-04T06:41:04.574Z,929.05
2019-05-04T06:42:09.034Z,929.06
2019-05-04T06:43:04.431Z,929.06
2019-05-04T06:44:05.468Z,929.05
2019-05-04T06:45:13.269Z,929.08
2019-05-04T06:46:05.211Z,929.10
2019-05-04T06:47:11.808Z,929.06
2019-05-04T06:48:05.456Z,929.04
2019-05-04T06:49:07.900Z,929.02
2019-05-04T06:50:05.064Z,929.06
2019-05-04T06:51:07.539Z,929.05
2019-05-04T06:52:04.884Z,929.02
2019-05-04T06:53:09.515Z,929.02
2019-05-04T06:54:04.465Z,929.03
2019-05-04T06:55:14.794Z,929.04
2019-05-04T06:56:12.829Z,929.04
2019-05-04T06:57:04.782Z,929.04
2019-05-04T06:58:07.790Z,929.05
2019-05-04T06:59:05.905Z,929.07
2019-05-04T07:00:05.141Z,929.08
2019-05-04T07:01:04.753Z,929.11
2019-05-04T07:02:04.832Z,929.10
2019-05-04T07:03:09.534Z,929.11
2019-05-04T07:04:05.110Z,929.12
2019-05-04T07:05:04.933Z,929.14
2019-05-04T07:06:05.939Z,929.13
2019-05-04T07:07:07.721Z,929.12
2019-05-04T07:08:09.071Z,929.13
2019-05-04T07:09:05.109Z,929.15
2019-05-04T07:10:08.952Z,929.19
2019-05-04T07:11:23.871Z,929.22
2019-05-04T07:12:11.051Z,929.22
2019-05-04T07:13:09.091Z,929.24
2019-05-04T07:14:07.799Z,929.24
2019-05-04T07:15:09.715Z,929.22
2019-05-04T07:16:05.443Z,929.25
2019-05-04T07:17:09.562Z,929.23
2019-05-04T07:18:05.522Z,929.20
2019-05-04T07:19:10.092Z,929.26
2019-05-04T07:20:05.625Z,929.21
2019-05-04T07:21:10.316Z,929.30
2019-05-04T07:22:07.440Z,929.26
2019-05-04T07:23:10.229Z,929.27
2019-05-04T07:24:05.793Z,929.27
2019-05-04T07:25:09.180Z,929.34
2019-05-04T07:26:05.887Z,929.30
2019-05-04T07:27:09.359Z,929.30
2019-05-04T07:28:05.985Z,929.34
2019-05-04T07:29:10.112Z,929.38
2019-05-04T07:30:06.069Z,929.35
2019-05-04T07:31:10.111Z,929.34
2019-05-04T07:32:06.168Z,929.34
2019-05-04T07:33:09.255Z,929.36
2019-05-04T07:34:06.693Z,929.35
2019-05-04T07:35:06.369Z,929.32
2019-05-04T07:36:10.687Z,929.31
2019-05-04T07:37:07.710Z,929.31
2019-05-04T07:38:12.353Z,929.29
2019-05-04T07:39:09.537Z,929.29
2019-05-04T07:40:10.182Z,929.30
2019-05-04T07:41:13.836Z,929.27
2019-05-04T07:42:14.654Z,929.27
2019-05-04T07:43:06.715Z,929.23
2019-05-04T07:44:10.060Z,929.27
2019-05-04T07:45:06.777Z,929.21
2019-05-04T07:46:09.456Z,929.24
2019-05-04T07:47:06.848Z,929.25
2019-05-04T07:48:08.925Z,929.27
2019-05-04T07:49:06.949Z,929.29
2019-05-04T07:50:07.009Z,929.32
2019-05-04T07:51:07.046Z,929.32
2019-05-04T07:52:07.087Z,929.29
2019-05-04T07:53:12.668Z,929.31
2019-05-04T07:54:07.172Z,929.29
2019-05-04T07:55:07.202Z,929.30
2019-05-04T07:56:07.279Z,929.29
2019-05-04T07:57:07.318Z,929.28
2019-05-04T07:58:09.253Z,929.26
2019-05-04T07:59:07.402Z,929.24
2019-05-04T08:00:10.229Z,929.28
2019-05-04T08:01:07.487Z,929.25
2019-05-04T08:02:08.497Z,929.22
2019-05-04T08:03:07.581Z,929.24
2019-05-04T08:04:09.502Z,929.22
2019-05-04T08:05:08.643Z,929.20
2019-05-04T08:06:10.156Z,929.21
2019-05-04T08:07:07.783Z,929.18
2019-05-04T08:08:10.639Z,929.19
2019-05-04T08:09:16.653Z,929.18
2019-05-04T08:10:07.938Z,929.15
2019-05-04T08:11:10.420Z,929.19
2019-05-04T08:12:08.363Z,929.19
2019-05-04T08:13:08.052Z,929.20
2019-05-04T08:14:10.748Z,929.18
2019-05-04T08:15:10.495Z,929.19
2019-05-04T08:16:10.028Z,929.17
2019-05-04T08:17:08.200Z,929.17
2019-05-04T08:18:11.200Z,929.22
2019-05-04T08:19:08.300Z,929.19
2019-05-04T08:20:14.898Z,929.25
2019-05-04T08:21:08.416Z,929.26
2019-05-04T08:22:14.346Z,929.30
2019-05-04T08:23:08.485Z,929.30
2019-05-04T08:24:10.816Z,929.36
2019-05-04T08:25:11.156Z,929.40
2019-05-04T08:26:08.605Z,929.35
2019-05-04T08:27:10.289Z,929.37
2019-05-04T08:28:08.707Z,929.40
2019-05-04T08:29:08.798Z,929.37
2019-05-04T08:30:10.034Z,929.42
2019-05-04T08:31:08.847Z,929.42
2019-05-04T08:32:10.049Z,929.41
2019-05-04T08:33:08.914Z,929.37
2019-05-04T08:34:09.302Z,929.42
2019-05-04T08:35:09.028Z,929.38
2019-05-04T08:36:14.159Z,929.39
2019-05-04T08:37:09.119Z,929.40
2019-05-04T08:38:11.442Z,929.40
2019-05-04T08:39:09.216Z,929.38
2019-05-04T08:40:09.266Z,929.44
2019-05-04T08:41:10.972Z,929.42
2019-05-04T08:42:23.838Z,929.42
2019-05-04T08:43:13.602Z,929.45
2019-05-04T08:44:14.395Z,929.43
2019-05-04T08:45:09.957Z,929.47
2019-05-04T08:46:09.566Z,929.44
2019-05-04T08:47:09.907Z,929.39
2019-05-04T08:48:09.616Z,929.39
2019-05-04T08:49:11.994Z,929.42
2019-05-04T08:50:09.714Z,929.42
2019-05-04T08:51:09.746Z,929.43
2019-05-04T08:52:13.765Z,929.43
2019-05-04T08:53:09.817Z,929.47
2019-05-04T08:54:10.693Z,929.48
2019-05-04T08:55:09.969Z,929.47
2019-05-04T08:56:11.108Z,929.47
2019-05-04T08:57:10.009Z,929.50
2019-05-04T08:58:14.929Z,929.52
2019-05-04T08:59:10.118Z,929.48
2019-05-04T09:00:10.146Z,929.53
2019-05-04T09:01:11.623Z,929.53
2019-05-04T09:02:10.240Z,929.53
2019-05-04T09:03:11.312Z,929.51
2019-05-04T09:04:24.447Z,929.52
2019-05-04T09:05:24.668Z,929.52
2019-05-04T09:06:13.961Z,929.53
2019-05-04T09:07:21.470Z,929.54
2019-05-04T09:08:16.413Z,929.52
2019-05-04T09:09:13.311Z,929.50
2019-05-04T09:10:10.644Z,929.52
2019-05-04T09:11:16.657Z,929.56
2019-05-04T09:12:19.853Z,929.54
2019-05-04T09:13:10.755Z,929.56
2019-05-04T09:14:10.797Z,929.58
2019-05-04T09:15:13.748Z,929.59
2019-05-04T09:16:10.882Z,929.57
2019-05-04T09:17:15.773Z,929.60
2019-05-04T09:18:10.983Z,929.65
2019-05-04T09:19:15.532Z,929.70
2019-05-04T09:20:11.082Z,929.66
2019-05-04T09:21:17.961Z,929.69
2019-05-04T09:22:20.275Z,929.70
2019-05-04T09:23:11.215Z,929.73
2019-05-04T09:24:11.247Z,929.70
2019-05-04T09:25:11.311Z,929.78
2019-05-04T09:26:14.580Z,929.77
2019-05-04T09:27:11.378Z,929.80
2019-05-04T09:28:13.623Z,929.82
2019-05-04T09:29:11.455Z,929.83
2019-05-04T09:30:12.493Z,929.83
2019-05-04T09:31:11.565Z,929.86
2019-05-04T09:32:24.387Z,929.85
2019-05-04T09:33:11.645Z,929.87
2019-05-04T09:34:11.723Z,929.90
2019-05-04T09:35:14.875Z,929.87
2019-05-04T09:36:11.809Z,929.90
2019-05-04T09:37:14.655Z,929.93
2019-05-04T09:38:21.434Z,929.89
2019-05-04T09:39:19.877Z,929.86
2019-05-04T09:40:12.066Z,929.90
2019-05-04T09:41:12.025Z,929.90
2019-05-04T09:42:14.015Z,929.91
2019-05-04T09:43:15.837Z,929.91
2019-05-04T09:44:12.161Z,929.92
2019-05-04T09:45:12.200Z,929.94
2019-05-04T09:46:14.162Z,929.96
2019-05-04T09:47:12.302Z,929.97
2019-05-04T09:48:12.356Z,929.96
2019-05-04T09:49:12.445Z,929.96
2019-05-04T09:50:17.522Z,930.00
2019-05-04T09:51:12.489Z,930.00
2019-05-04T09:52:12.545Z,930.01
2019-05-04T09:53:18.066Z,929.96
2019-05-04T09:54:15.066Z,930.06
2019-05-04T09:55:12.685Z,930.00
2019-05-04T09:56:15.829Z,930.02
2019-05-04T09:57:14.920Z,930.02
2019-05-04T09:58:15.727Z,930.02
2019-05-04T09:59:12.829Z,930.06
2019-05-04T10:00:14.976Z,930.02
2019-05-04T10:01:12.959Z,930.08
2019-05-04T10:02:14.527Z,930.09
2019-05-04T10:03:15.312Z,930.10
2019-05-04T10:04:14.679Z,930.06
2019-05-04T10:05:24.814Z,930.09
2019-05-04T10:06:13.171Z,930.11
2019-05-04T10:07:14.859Z,930.08
2019-05-04T10:08:15.037Z,930.09
2019-05-04T10:09:14.600Z,930.10
2019-05-04T10:10:14.316Z,930.11
2019-05-04T10:11:15.007Z,930.14
2019-05-04T10:12:15.238Z,930.13
2019-05-04T10:13:14.284Z,930.17
2019-05-04T10:14:14.702Z,930.19
2019-05-04T10:15:13.616Z,930.22
2019-05-04T10:16:15.310Z,930.28
2019-05-04T10:17:14.228Z,930.27
2019-05-04T10:18:14.647Z,930.32
2019-05-04T10:19:15.128Z,930.34
2019-05-04T10:20:14.354Z,930.31
2019-05-04T10:21:14.620Z,930.36
2019-05-04T10:22:13.960Z,930.34
2019-05-04T10:23:15.393Z,930.39
2019-05-04T10:24:15.628Z,930.38
2019-05-04T10:25:14.031Z,930.44
2019-05-04T10:26:14.470Z,930.46
2019-05-04T10:27:14.590Z,930.43
2019-05-04T10:28:14.714Z,930.45
2019-05-04T10:29:14.747Z,930.46
2019-05-04T10:30:15.113Z,930.50
2019-05-04T10:31:15.529Z,930.54
2019-05-04T10:32:15.222Z,930.56
2019-05-04T10:33:15.076Z,930.59
2019-05-04T10:34:14.969Z,930.60
2019-05-04T10:35:15.374Z,930.62
2019-05-04T10:36:15.151Z,930.60
2019-05-04T10:37:15.155Z,930.56
2019-05-04T10:38:14.646Z,930.57
2019-05-04T10:39:15.355Z,930.59
2019-05-04T10:40:15.325Z,930.59
2019-05-04T10:41:15.362Z,930.62
2019-05-04T10:42:15.117Z,930.58
2019-05-04T10:43:15.174Z,930.60
2019-05-04T10:44:14.940Z,930.62
2019-05-04T10:45:15.300Z,930.57
2019-05-04T10:46:15.067Z,930.62
2019-05-04T10:47:15.105Z,930.59
2019-05-04T10:48:15.161Z,930.64
2019-05-04T10:49:15.190Z,930.66
2019-05-04T10:50:15.242Z,930.66
2019-05-04T10:51:15.286Z,930.63
2019-05-04T10:52:15.339Z,930.64
2019-05-04T10:53:15.370Z,930.65
2019-05-04T10:54:15.429Z,930.69
2019-05-04T10:55:15.489Z,930.66
2019-05-04T10:56:15.523Z,930.67
2019-05-04T10:57:15.585Z,930.66
2019-05-04T10:58:15.638Z,930.64
2019-05-04T10:59:18.767Z,930.66
2019-05-04T11:00:15.701Z,930.68
2019-05-04T11:01:15.782Z,930.67
2019-05-04T11:02:15.880Z,930.66
2019-05-04T11:03:15.887Z,930.63
2019-05-04T11:04:15.918Z,930.67
2019-05-04T11:05:15.974Z,930.63
2019-05-04T11:06:16.022Z,930.61
2019-05-04T11:07:16.082Z,930.64
2019-05-04T11:08:16.123Z,930.66
2019-05-04T11:09:16.183Z,930.70
2019-05-04T11:10:16.214Z,930.67
2019-05-04T11:11:22.770Z,930.71
2019-05-04T11:12:16.310Z,930.76
2019-05-04T11:13:20.064Z,930.75
2019-05-04T11:14:16.425Z,930.76
2019-05-04T11:15:16.451Z,930.80
2019-05-04T11:16:16.496Z,930.75
2019-05-04T11:17:16.572Z,930.80
2019-05-04T11:18:16.630Z,930.79
2019-05-04T11:19:16.640Z,930.81
2019-05-04T11:20:16.727Z,930.89
2019-05-04T11:21:16.767Z,930.84
2019-05-04T11:22:16.830Z,930.89
2019-05-04T11:23:16.880Z,930.89
2019-05-04T11:24:16.923Z,930.94
2019-05-04T11:25:16.977Z,930.93
2019-05-04T11:26:16.991Z,930.92
2019-05-04T11:27:17.081Z,930.91
2019-05-04T11:28:17.105Z,930.94
2019-05-04T11:29:17.167Z,930.98
2019-05-04T11:30:17.232Z,930.97
2019-05-04T11:31:17.262Z,930.93
2019-05-04T11:32:17.362Z,930.97
2019-05-04T11:33:17.374Z,930.98
2019-05-04T11:34:17.425Z,930.97
2019-05-04T11:35:17.473Z,930.97
2019-05-04T11:36:17.525Z,930.96
2019-05-04T11:37:17.578Z,930.99
2019-05-04T11:38:17.616Z,930.99
2019-05-04T11:39:17.712Z,931.00
2019-05-04T11:40:17.725Z,930.96
2019-05-04T11:41:17.782Z,930.99
2019-05-04T11:42:17.833Z,931.04
2019-05-04T11:43:28.884Z,931.07
2019-05-04T11:44:17.972Z,931.09
2019-05-04T11:45:17.997Z,931.08
2019-05-04T11:46:20.481Z,931.08
2019-05-04T11:47:18.090Z,931.13
2019-05-04T11:48:18.138Z,931.13
2019-05-04T11:49:18.201Z,931.12
2019-05-04T11:50:18.255Z,931.11
2019-05-04T11:51:18.340Z,931.15
2019-05-04T11:52:18.401Z,931.13
2019-05-04T11:53:18.896Z,931.15
2019-05-04T11:54:18.447Z,931.16
2019-05-04T11:55:18.504Z,931.16
2019-05-04T11:56:18.559Z,931.21
2019-05-04T11:57:18.612Z,931.20
2019-05-04T11:58:18.665Z,931.20
2019-05-04T11:59:18.714Z,931.22
2019-05-04T12:00:18.802Z,931.23
2019-05-04T12:01:18.827Z,931.24
2019-05-04T12:02:18.878Z,931.25
2019-05-04T12:03:18.950Z,931.26
2019-05-04T12:04:18.984Z,931.23
2019-05-04T12:05:19.052Z,931.27
2019-05-04T12:06:19.092Z,931.28
2019-05-04T12:07:19.142Z,931.34
2019-05-04T12:08:19.214Z,931.32
2019-05-04T12:09:19.259Z,931.33
2019-05-04T12:10:19.312Z,931.30
2019-05-04T12:11:19.354Z,931.32
2019-05-04T12:12:19.428Z,931.32
2019-05-04T12:13:19.471Z,931.28
2019-05-04T12:14:19.527Z,931.29
2019-05-04T12:15:19.609Z,931.31
2019-05-04T12:16:19.643Z,931.30
2019-05-04T12:17:19.705Z,931.32
2019-05-04T12:18:19.758Z,931.30
2019-05-04T12:19:19.790Z,931.28
2019-05-04T12:20:19.840Z,931.31
2019-05-04T12:21:19.908Z,931.32
2019-05-04T12:22:19.960Z,931.34
2019-05-04T12:23:20.001Z,931.37
2019-05-04T12:24:20.059Z,931.40
2019-05-04T12:25:20.126Z,931.41
2019-05-04T12:26:20.173Z,931.40
2019-05-04T12:27:20.223Z,931.39
2019-05-04T12:28:20.274Z,931.41
2019-05-04T12:29:20.334Z,931.38
2019-05-04T12:30:20.401Z,931.40